Time;durP1;ratioP1;P1;durP2;ratioP2;P2;SDS_P1;SDS_P2;PMS_P1;PMS_P2;Temp;Humidity;BMP_temperature;BMP_pressure;BME280_temperature;BME280_humidity;BME280_pressure;Samples;Min_cycle;Max_cycle;Signal;HPM_P1;HPM_P2
2023/07/10 00:01:25;;;;;;;9.13;4.50;;;;;;;18.98;92.84;102038.13;6189259;23;20017;-82
2023/07/10 00:03:53;;;;;;;7.45;3.67;;;;;;;18.95;93.77;102047.88;6163705;23;20064;-82
2023/07/10 00:06:20;;;;;;;8.05;4.43;;;;;;;18.93;94.34;102053.00;6162231;23;20045;-82
2023/07/10 00:08:47;;;;;;;7.28;4.25;;;;;;;18.94;94.95;102067.25;6189377;23;20084;-82
2023/07/10 00:11:28;;;;;;;8.90;4.20;;;;;;;18.91;95.48;102055.41;6189369;23;20536;-83
2023/07/10 00:13:55;;;;;;;4.60;4.20;;;;;;;18.86;95.88;102069.56;6189742;23;20018;-83
2023/07/10 00:16:24;;;;;;;6.07;4.47;;;;;;;18.83;96.27;102065.09;6189000;23;20037;-82
2023/07/10 00:18:51;;;;;;;8.45;4.40;;;;;;;18.83;96.21;102054.28;6190128;23;20444;-82
2023/07/10 00:21:18;;;;;;;8.38;4.00;;;;;;;18.82;95.26;102043.97;6189370;23;20088;-83
2023/07/10 00:23:45;;;;;;;7.10;4.55;;;;;;;18.82;94.45;102033.19;6188980;23;20013;-83
2023/07/10 00:26:24;;;;;;;5.55;3.90;;;;;;;18.83;93.79;102043.50;6188691;23;20439;-82
2023/07/10 00:28:54;;;;;;;7.65;4.07;;;;;;;18.79;93.43;102053.03;6189205;23;20013;-82
2023/07/10 00:31:22;;;;;;;10.18;3.90;;;;;;;18.78;93.87;102043.44;6188936;23;20503;-83
2023/07/10 00:33:49;;;;;;;7.03;3.95;;;;;;;18.78;93.91;102046.88;6163271;23;20126;-83
2023/07/10 00:36:31;;;;;;;5.85;3.65;;;;;;;18.80;93.48;102052.53;6162419;23;20056;-83
2023/07/10 00:39:04;;;;;;;;;;;;;;;18.80;93.18;102062.56;6190089;23;20030;-83
2023/07/10 00:41:34;;;;;;;5.75;3.85;;;;;;;18.78;93.86;102063.06;6162284;23;19925;-83
2023/07/10 00:44:03;;;;;;;5.50;3.60;;;;;;;18.75;93.96;102055.91;6162634;23;20022;-83
2023/07/10 00:46:38;;;;;;;4.95;3.70;;;;;;;18.75;93.53;102050.50;6162064;23;20029;-82
2023/07/10 00:49:31;;;;;;;6.13;3.88;;;;;;;18.75;92.75;102049.75;6189844;23;20014;-83
2023/07/10 00:52:13;;;;;;;3.60;3.28;;;;;;;18.70;94.02;102045.75;6107310;23;20076;-83
2023/07/10 00:54:44;;;;;;;4.43;3.58;;;;;;;18.71;94.10;102051.91;6162732;23;20028;-83
2023/07/10 00:57:33;;;;;;;12.10;4.25;;;;;;;18.71;94.83;102047.25;6189178;23;20552;-83
2023/07/10 01:00:14;;;;;;;6.60;3.78;;;;;;;18.69;95.58;102041.56;6189515;23;20073;-82
2023/07/10 01:02:40;;;;;;;5.65;4.35;;;;;;;18.69;94.92;102044.25;6162540;23;20026;-83
2023/07/10 01:05:08;;;;;;;5.10;3.45;;;;;;;18.68;95.55;102044.72;6189150;23;20021;-81
2023/07/10 01:07:48;;;;;;;10.10;4.03;;;;;;;18.67;95.00;102046.69;6162320;23;20463;-82
2023/07/10 01:10:14;;;;;;;5.57;3.42;;;;;;;18.62;94.97;102048.06;6162318;23;20014;-82
2023/07/10 01:12:43;;;;;;;7.60;3.78;;;;;;;18.58;95.20;102047.47;6189283;23;20080;-82
2023/07/10 01:15:11;;;;;;;4.63;3.92;;;;;;;18.57;95.22;102037.16;6162428;23;20452;-82
2023/07/10 01:17:39;;;;;;;3.70;3.28;;;;;;;18.55;95.11;102040.31;6189618;23;20602;-83
2023/07/10 01:20:17;;;;;;;9.20;3.38;;;;;;;18.53;94.94;102036.59;6162952;23;20014;-82
2023/07/10 01:22:45;;;;;;;4.68;3.22;;;;;;;18.49;94.90;102030.63;6163140;23;20022;-82
2023/07/10 01:25:14;;;;;;;8.05;3.78;;;;;;;18.45;93.67;102038.91;6188756;23;20072;-82
2023/07/10 01:27:40;;;;;;;3.85;3.30;;;;;;;18.47;94.01;102035.75;6162904;23;20022;-83
2023/07/10 01:30:21;;;;;;;15.27;4.13;;;;;;;18.47;94.05;102035.75;6162561;23;20072;-82
2023/07/10 01:32:49;;;;;;;5.82;3.40;;;;;;;18.42;93.92;102036.38;6189693;23;20068;-82
2023/07/10 01:35:17;;;;;;;4.88;3.78;;;;;;;18.37;93.81;102026.25;6188646;23;20021;-82
2023/07/10 01:37:45;;;;;;;4.78;3.67;;;;;;;18.30;93.96;102038.88;6189446;23;20020;-82
2023/07/10 01:40:16;;;;;;;7.03;3.70;;;;;;;18.25;94.00;102031.44;6189101;23;20442;-81
2023/07/10 01:42:43;;;;;;;11.20;3.88;;;;;;;18.25;93.97;102034.13;6189234;23;20030;-82
2023/07/10 01:45:13;;;;;;;4.28;3.17;;;;;;;18.22;94.27;102053.19;6189217;23;20036;-81
2023/07/10 01:47:41;;;;;;;4.13;3.75;;;;;;;18.20;94.05;102061.72;6162718;23;20021;-82
2023/07/10 01:50:08;;;;;;;4.22;3.25;;;;;;;18.16;95.45;102060.41;6188974;23;20514;-81
2023/07/10 01:52:35;;;;;;;5.72;3.55;;;;;;;18.11;95.49;102052.94;6162165;23;20100;-81
2023/07/10 01:55:02;;;;;;;8.60;3.50;;;;;;;18.10;95.03;102048.75;6162687;23;20025;-81
2023/07/10 01:57:30;;;;;;;6.32;3.63;;;;;;;18.06;94.67;102040.84;6161465;23;20451;-80
2023/07/10 01:59:57;;;;;;;4.43;3.00;;;;;;;18.07;94.23;102041.59;6162675;23;20113;-80
2023/07/10 02:02:23;;;;;;;7.10;4.13;;;;;;;18.05;94.45;102047.44;6136917;23;20104;-81
2023/07/10 02:04:50;;;;;;;5.38;4.10;;;;;;;17.98;95.25;102050.50;6188645;23;20053;-82
2023/07/10 02:07:17;;;;;;;5.68;3.97;;;;;;;17.90;95.83;102050.09;6162299;23;20022;-82
2023/07/10 02:09:44;;;;;;;4.85;4.20;;;;;;;17.86;95.79;102046.09;6189180;23;20072;-82
2023/07/10 02:12:10;;;;;;;7.25;4.00;;;;;;;17.84;96.04;102053.88;6161814;23;20026;-81
2023/07/10 02:14:37;;;;;;;4.60;4.20;;;;;;;17.84;96.30;102048.50;6188845;23;20049;-81
2023/07/10 02:17:04;;;;;;;5.10;3.92;;;;;;;17.83;96.53;102055.09;6188955;23;20013;-81
2023/07/10 02:19:30;;;;;;;5.22;4.70;;;;;;;17.81;96.12;102052.09;6161631;23;20728;-82
2023/07/10 02:21:57;;;;;;;6.93;4.25;;;;;;;17.78;96.03;102056.47;6189414;23;20014;-82
2023/07/10 02:24:24;;;;;;;9.48;4.50;;;;;;;17.79;95.61;102054.50;6162447;23;20452;-82
2023/07/10 02:26:51;;;;;;;7.53;4.32;;;;;;;17.78;96.07;102058.41;6188961;23;20020;-82
2023/07/10 02:29:20;;;;;;;4.97;4.47;;;;;;;17.72;96.03;102054.84;6188250;23;20045;-81
2023/07/10 02:31:50;;;;;;;4.43;4.03;;;;;;;17.72;95.87;102058.28;6162467;23;20028;-82
2023/07/10 02:34:17;;;;;;;4.43;4.10;;;;;;;17.68;95.78;102057.69;6162786;23;20101;-82
2023/07/10 02:36:43;;;;;;;6.03;3.70;;;;;;;17.66;95.19;102055.47;6162854;23;20484;-82
2023/07/10 02:39:10;;;;;;;3.72;3.50;;;;;;;17.65;94.40;102045.91;6137857;23;20512;-81
2023/07/10 02:41:37;;;;;;;3.65;3.30;;;;;;;17.66;94.57;102044.69;6188900;23;20787;-82
2023/07/10 02:44:03;;;;;;;3.65;3.20;;;;;;;17.66;93.93;102049.34;6162704;23;20018;-81
2023/07/10 02:46:30;;;;;;;7.63;3.65;;;;;;;17.64;94.38;102049.00;6136133;23;20104;-81
2023/07/10 02:48:57;;;;;;;4.78;2.85;;;;;;;17.61;94.19;102052.63;6162168;23;20014;-81
2023/07/10 02:51:23;;;;;;;4.30;3.35;;;;;;;17.56;94.22;102045.94;6161662;23;20022;-82
2023/07/10 02:53:52;;;;;;;4.13;3.30;;;;;;;17.49;94.56;102050.91;6138648;23;20025;-82
2023/07/10 02:56:19;;;;;;;3.80;3.50;;;;;;;17.40;95.33;102053.63;6189392;23;20024;-81
2023/07/10 02:58:50;;;;;;;4.55;3.40;;;;;;;17.39;95.48;102049.44;6163090;23;20017;-81
2023/07/10 03:01:16;;;;;;;3.47;3.17;;;;;;;17.38;95.36;102056.78;6188843;23;20017;-81
2023/07/10 03:03:45;;;;;;;4.78;3.47;;;;;;;17.35;95.88;102055.00;6190351;23;20100;-81
2023/07/10 03:06:12;;;;;;;4.97;3.45;;;;;;;17.33;95.48;102052.75;6138512;23;20018;-82
2023/07/10 03:08:40;;;;;;;5.38;3.63;;;;;;;17.28;96.24;102060.69;6138211;23;20026;-81
2023/07/10 03:11:10;;;;;;;4.40;3.50;;;;;;;17.28;96.01;102060.69;6190118;23;20052;-81
2023/07/10 03:13:36;;;;;;;6.90;3.60;;;;;;;17.22;96.30;102059.81;6189485;23;20057;-81
2023/07/10 03:16:07;;;;;;;7.20;3.75;;;;;;;17.22;96.15;102070.56;6162905;23;20045;-81
2023/07/10 03:18:36;;;;;;;4.57;3.40;;;;;;;17.20;96.84;102068.34;6163878;23;20073;-81
2023/07/10 03:21:05;;;;;;;7.20;3.83;;;;;;;17.20;95.15;102062.94;6163401;23;20032;-81
2023/07/10 03:23:32;;;;;;;5.82;3.40;;;;;;;17.17;95.56;102066.56;6162906;23;20017;-82
2023/07/10 03:25:59;;;;;;;4.70;3.35;;;;;;;17.15;95.93;102070.91;6190084;23;20452;-82
2023/07/10 03:28:27;;;;;;;6.55;3.58;;;;;;;17.12;95.96;102072.56;6162632;23;20388;-82
2023/07/10 03:30:54;;;;;;;4.45;3.72;;;;;;;17.10;96.12;102076.91;6189889;23;20029;-81
2023/07/10 03:33:21;;;;;;;6.15;3.42;;;;;;;17.05;96.67;102082.88;6163035;23;20021;-80
2023/07/10 03:35:57;;;;;;;4.00;3.60;;;;;;;17.04;96.11;102078.72;6163615;23;20106;-81
2023/07/10 03:38:24;;;;;;;3.38;3.00;;;;;;;17.00;96.37;102081.56;6189525;23;20029;-81
2023/07/10 03:40:52;;;;;;;4.47;2.92;;;;;;;16.98;96.09;102082.00;6189445;23;20197;-82
2023/07/10 03:43:19;;;;;;;4.93;3.25;;;;;;;16.98;96.21;102092.75;6162198;23;20017;-81
2023/07/10 03:45:46;;;;;;;5.22;3.40;;;;;;;16.96;96.79;102087.09;6189000;23;20017;-81
2023/07/10 03:48:12;;;;;;;4.00;3.28;;;;;;;16.95;96.12;102084.84;6189455;23;20048;-80
2023/07/10 03:50:39;;;;;;;3.55;3.25;;;;;;;16.95;96.48;102082.91;6163526;23;20408;-81
2023/07/10 03:53:06;;;;;;;4.97;3.25;;;;;;;16.95;96.29;102099.03;6138378;23;20486;-81
2023/07/10 03:55:32;;;;;;;7.30;2.95;;;;;;;16.91;96.50;102098.44;6162822;23;20188;-81
2023/07/10 03:57:59;;;;;;;3.78;3.40;;;;;;;16.90;96.36;102101.59;6163492;23;20045;-81
2023/07/10 04:00:25;;;;;;;6.53;3.35;;;;;;;16.92;96.87;102099.94;6188515;23;20025;-81
2023/07/10 04:02:52;;;;;;;5.20;3.20;;;;;;;16.92;97.98;102108.00;6189824;23;20060;-81
2023/07/10 04:05:19;;;;;;;3.92;3.53;;;;;;;16.92;98.01;102099.94;6189043;23;20064;-80
2023/07/10 04:07:45;;;;;;;5.38;3.47;;;;;;;16.95;97.86;102106.38;6189723;23;20013;-81
2023/07/10 04:10:12;;;;;;;5.03;3.80;;;;;;;16.95;97.36;102103.69;6162471;23;20500;-82
2023/07/10 04:12:43;;;;;;;3.65;3.38;;;;;;;16.97;97.02;102104.72;6189536;23;20096;-81
2023/07/10 04:15:09;;;;;;;5.57;4.00;;;;;;;16.97;97.07;102107.41;6189354;23;20049;-80
2023/07/10 04:17:36;;;;;;;4.05;3.42;;;;;;;16.99;97.35;102105.00;6163221;23;20017;-81
2023/07/10 04:20:04;;;;;;;5.13;3.88;;;;;;;17.01;97.75;102107.25;6163228;23;20026;-81
2023/07/10 04:22:30;;;;;;;5.68;4.07;;;;;;;17.07;97.21;102116.22;6188774;23;20098;-81
2023/07/10 04:25:04;;;;;;;4.18;3.85;;;;;;;17.10;96.97;102114.56;6189296;23;20021;-81
2023/07/10 04:27:31;;;;;;;4.45;4.05;;;;;;;17.09;97.12;102113.81;6188781;23;20021;-81
2023/07/10 04:29:59;;;;;;;9.05;3.70;;;;;;;17.14;97.10;102125.94;6189236;23;20022;-81
2023/07/10 04:32:26;;;;;;;7.15;4.30;;;;;;;17.10;97.24;102126.06;6188700;23;20041;-82
2023/07/10 04:34:52;;;;;;;6.53;4.32;;;;;;;17.10;97.27;102126.06;6189687;23;20018;-81
2023/07/10 04:37:19;;;;;;;7.63;4.90;;;;;;;17.14;96.59;102129.38;6188835;23;20036;-81
2023/07/10 04:39:46;;;;;;;6.10;4.30;;;;;;;17.18;96.91;102131.91;6163542;23;20044;-81
2023/07/10 04:42:12;;;;;;;8.00;4.60;;;;;;;17.16;96.91;102126.97;6163317;23;20045;-81
2023/07/10 04:44:39;;;;;;;6.07;4.32;;;;;;;17.16;96.77;102126.97;6161936;23;20021;-81
2023/07/10 04:47:05;;;;;;;6.28;4.28;;;;;;;17.21;96.61;102123.66;6163073;23;20021;-81
2023/07/10 04:49:32;;;;;;;7.20;4.80;;;;;;;17.27;96.40;102127.22;6162160;23;20022;-81
2023/07/10 04:51:59;;;;;;;5.30;4.25;;;;;;;17.53;96.08;102127.63;6138172;23;20391;-81
2023/07/10 04:54:25;;;;;;;6.80;4.22;;;;;;;18.54;91.70;102121.66;6188872;23;20017;-81
2023/07/10 04:56:52;;;;;;;6.18;4.10;;;;;;;19.94;83.72;102122.78;6162774;23;20013;-82
2023/07/10 04:59:19;;;;;;;6.20;4.45;;;;;;;20.76;78.48;102128.91;6162983;23;20030;-82
2023/07/10 05:01:45;;;;;;;5.90;4.30;;;;;;;20.69;77.63;102131.28;6190541;23;20013;-82
2023/07/10 05:04:12;;;;;;;6.28;3.90;;;;;;;22.47;70.77;102129.03;6163811;23;20021;-82
2023/07/10 05:06:39;;;;;;;6.30;3.95;;;;;;;24.21;64.09;102130.41;6163133;23;20041;-83
2023/07/10 05:09:05;;;;;;;3.88;3.58;;;;;;;25.27;58.81;102125.00;6190146;23;20017;-82
2023/07/10 05:11:32;;;;;;;7.57;3.72;;;;;;;25.80;56.66;102135.66;6138464;23;20025;-82
2023/07/10 05:13:59;;;;;;;4.20;3.35;;;;;;;26.30;54.58;102139.75;6190483;23;20465;-84
2023/07/10 05:16:26;;;;;;;5.47;3.13;;;;;;;26.88;53.02;102131.72;6163153;23;20048;-76
2023/07/10 05:18:53;;;;;;;4.22;3.00;;;;;;;27.07;52.21;102142.63;6190450;23;20017;-75
2023/07/10 05:21:20;;;;;;;4.05;2.75;;;;;;;27.19;50.90;102146.66;6189761;23;20474;-77
2023/07/10 05:23:48;;;;;;;5.55;2.92;;;;;;;26.54;51.87;102150.59;6190419;23;20028;-76
2023/07/10 05:26:16;;;;;;;4.75;2.70;;;;;;;25.12;55.30;102146.47;6189375;23;20014;-75
2023/07/10 05:28:44;;;;;;;5.25;3.17;;;;;;;25.15;56.99;102141.97;6190355;23;20527;-75
2023/07/10 05:31:12;;;;;;;4.88;3.05;;;;;;;26.42;53.19;102138.38;6190302;23;20359;-75
2023/07/10 05:33:40;;;;;;;5.28;2.47;;;;;;;27.06;50.72;102128.22;6189990;23;20396;-79
2023/07/10 05:36:10;;;;;;;4.55;2.50;;;;;;;27.39;50.15;102137.84;6164319;23;20347;-80
2023/07/10 05:38:37;;;;;;;4.38;2.70;;;;;;;27.70;49.40;102132.81;6189891;23;20028;-79
2023/07/10 05:41:04;;;;;;;8.00;2.40;;;;;;;28.04;49.08;102136.34;6189705;23;20017;-79
2023/07/10 05:43:33;;;;;;;3.78;2.30;;;;;;;28.25;48.09;102146.66;6163127;23;20021;-79
2023/07/10 05:46:01;;;;;;;5.53;2.05;;;;;;;28.23;47.97;102138.97;6190764;23;20009;-79
2023/07/10 05:48:28;;;;;;;6.70;3.55;;;;;;;27.84;48.36;102143.22;6163355;23;20104;-78
2023/07/10 05:50:56;;;;;;;5.45;2.47;;;;;;;27.68;49.21;102143.53;6190287;23;20084;-79
2023/07/10 05:53:23;;;;;;;4.50;2.08;;;;;;;27.34;50.58;102137.94;6189955;23;20013;-77
2023/07/10 05:55:51;;;;;;;4.38;2.33;;;;;;;27.02;51.16;102143.47;6163230;23;20112;-78
2023/07/10 05:58:19;;;;;;;5.93;2.13;;;;;;;26.69;51.21;102148.16;6163224;23;20344;-80
2023/07/10 06:00:49;;;;;;;4.03;2.00;;;;;;;26.00;53.02;102137.88;6163015;23;20045;-80
2023/07/10 06:03:16;;;;;;;3.72;2.00;;;;;;;25.75;53.79;102142.66;6163022;23;20096;-80
2023/07/10 06:05:52;;;;;;;6.35;1.77;;;;;;;25.29;55.08;102137.38;6138631;23;20022;-80
2023/07/10 06:08:18;;;;;;;4.05;2.13;;;;;;;24.92;56.66;102142.13;6162984;23;20021;-80
2023/07/10 06:10:46;;;;;;;4.65;2.13;;;;;;;24.77;57.06;102138.28;6162663;23;20379;-79
2023/07/10 06:13:12;;;;;;;6.05;2.03;;;;;;;24.62;57.65;102143.31;6189886;23;20065;-79
2023/07/10 06:15:43;;;;;;;4.70;1.90;;;;;;;24.51;57.45;102136.69;6163231;23;20013;-78
2023/07/10 06:18:10;;;;;;;4.32;1.88;;;;;;;24.32;58.56;102143.25;6163239;23;20467;-78
2023/07/10 06:20:36;;;;;;;7.43;2.00;;;;;;;24.23;58.52;102142.25;6189284;23;20014;-78
2023/07/10 06:23:03;;;;;;;4.57;1.90;;;;;;;24.22;59.49;102145.47;6189252;23;20049;-79
2023/07/10 06:25:30;;;;;;;8.05;2.10;;;;;;;24.14;58.53;102152.69;6156542;23;20435;-77
2023/07/10 06:27:57;;;;;;;5.80;2.08;;;;;;;24.06;59.69;102149.00;6160466;23;20077;-80
2023/07/10 06:30:24;;;;;;;4.32;1.77;;;;;;;23.90;58.85;102153.28;6159746;23;20052;-90
2023/07/10 06:32:51;;;;;;;4.72;1.80;;;;;;;23.76;58.94;102157.00;6160549;23;20018;-82
2023/07/10 06:35:18;;;;;;;4.38;1.98;;;;;;;23.31;60.74;102159.03;6159745;23;20052;-85
2023/07/10 06:37:45;;;;;;;5.25;1.58;;;;;;;23.39;61.22;102157.28;6161494;23;20097;-82
2023/07/10 06:40:14;;;;;;;6.45;2.05;;;;;;;23.28;60.47;102150.63;6160440;23;20069;-84
2023/07/10 06:42:42;;;;;;;3.50;1.98;;;;;;;23.15;61.59;102155.81;6158680;23;20022;-83
2023/07/10 06:45:13;;;;;;;5.10;1.75;;;;;;;23.23;62.15;102154.06;6159184;23;20133;-83
2023/07/10 06:47:43;;;;;;;5.22;1.75;;;;;;;23.54;61.40;102155.81;6160668;23;20022;-83
2023/07/10 06:50:13;;;;;;;4.80;2.15;;;;;;;23.64;60.75;102160.97;6161266;23;20014;-83
2023/07/10 06:52:42;;;;;;;3.67;1.80;;;;;;;23.49;61.51;102158.53;6159188;23;20029;-82
2023/07/10 06:55:13;;;;;;;5.43;1.80;;;;;;;23.24;61.50;102162.97;6160687;23;20110;-82
2023/07/10 06:57:40;;;;;;;;;;;;;;;23.25;63.47;102167.16;6161465;23;20152;-82
2023/07/10 07:00:10;;;;;;;4.40;1.90;;;;;;;23.17;61.77;102171.63;6161443;23;19921;-82
2023/07/10 07:02:37;;;;;;;5.22;1.90;;;;;;;23.17;61.43;102177.06;6160689;23;20018;-82
2023/07/10 07:05:05;;;;;;;4.50;2.00;;;;;;;23.14;62.04;102183.47;6159455;23;20037;-82
2023/07/10 07:07:32;;;;;;;5.40;2.40;;;;;;;23.19;62.66;102185.47;6133550;23;20026;-83
2023/07/10 07:09:59;;;;;;;4.97;2.28;;;;;;;23.34;62.28;102187.91;6160981;23;20018;-82
2023/07/10 07:12:26;;;;;;;6.30;2.10;;;;;;;23.46;60.41;102183.97;6160922;23;20089;-84
2023/07/10 07:14:53;;;;;;;7.18;1.85;;;;;;;23.42;61.39;102192.38;6160807;23;20388;-83
2023/07/10 07:17:20;;;;;;;4.72;2.10;;;;;;;23.55;60.75;102189.94;6160513;23;20050;-82
2023/07/10 07:19:47;;;;;;;7.78;2.72;;;;;;;23.42;60.38;102192.38;6159415;23;20415;-82
2023/07/10 07:22:14;;;;;;;16.58;2.53;;;;;;;23.34;60.92;102194.09;6158453;23;20073;-81
2023/07/10 07:24:40;;;;;;;8.20;2.47;;;;;;;23.38;61.24;102193.84;6134067;23;20029;-82
2023/07/10 07:27:07;;;;;;;7.10;2.20;;;;;;;23.60;60.75;102188.41;6158599;23;20026;-81
2023/07/10 07:29:34;;;;;;;6.93;2.38;;;;;;;23.76;59.38;102184.94;6158997;23;20018;-82
2023/07/10 07:32:00;;;;;;;6.47;2.17;;;;;;;23.66;59.36;102181.00;6159403;23;20052;-82
2023/07/10 07:34:27;;;;;;;6.15;2.17;;;;;;;23.50;60.20;102182.47;6158787;23;20085;-82
2023/07/10 07:36:53;;;;;;;5.55;2.30;;;;;;;23.88;59.41;102189.13;6158736;23;20093;-82
2023/07/10 07:39:20;;;;;;;8.25;2.47;;;;;;;23.71;58.00;102193.84;6158682;23;20083;-82
2023/07/10 07:41:47;;;;;;;5.82;2.60;;;;;;;23.45;60.38;102190.63;6161069;23;20017;-82
2023/07/10 07:44:14;;;;;;;7.72;2.55;;;;;;;23.73;61.23;102187.91;6160461;23;20045;-82
2023/07/10 07:46:41;;;;;;;6.88;2.65;;;;;;;23.73;59.02;102188.66;6160332;23;20040;-80
2023/07/10 07:49:08;;;;;;;8.98;2.35;;;;;;;23.95;57.98;102198.75;6159099;23;20020;-80
2023/07/10 07:51:36;;;;;;;3.75;1.85;;;;;;;24.00;57.64;102202.66;6158217;23;20528;-81
2023/07/10 07:54:11;;;;;;;10.50;2.33;;;;;;;23.97;57.52;102198.25;6160570;23;20041;-81
2023/07/10 07:56:38;;;;;;;5.40;2.35;;;;;;;24.15;58.98;102198.44;6160299;23;20534;-80
2023/07/10 07:59:05;;;;;;;8.07;1.90;;;;;;;24.27;57.21;102196.44;6159052;23;20025;-80
2023/07/10 08:01:32;;;;;;;5.88;1.95;;;;;;;24.16;56.98;102197.19;6160427;23;20021;-80
2023/07/10 08:03:58;;;;;;;8.07;2.22;;;;;;;24.42;56.76;102190.69;6160768;23;20524;-81
2023/07/10 08:06:27;;;;;;;4.00;1.95;;;;;;;24.43;56.55;102192.91;6158314;23;20029;-81
2023/07/10 08:08:54;;;;;;;6.03;2.38;;;;;;;24.55;57.45;102190.88;6160649;23;20018;-81
2023/07/10 08:11:21;;;;;;;8.55;2.00;;;;;;;24.84;57.01;102187.47;6160244;23;20018;-81
2023/07/10 08:13:48;;;;;;;6.80;2.25;;;;;;;25.34;55.62;102182.94;6160957;23;20044;-81
2023/07/10 08:16:16;;;;;;;7.57;2.70;;;;;;;25.33;54.34;102179.47;6160687;23;20002;-80
2023/07/10 08:18:42;;;;;;;5.10;2.30;;;;;;;25.34;53.83;102183.66;6158528;23;20082;-80
2023/07/10 08:21:12;;;;;;;4.60;2.17;;;;;;;24.89;54.29;102185.97;6160268;23;20157;-79
2023/07/10 08:23:39;;;;;;;9.90;2.30;;;;;;;24.53;55.62;102188.66;6160058;23;20326;-80
2023/07/10 08:26:06;;;;;;;14.43;2.40;;;;;;;24.82;55.40;102178.31;6147164;23;20102;-80
2023/07/10 08:28:33;;;;;;;4.07;1.90;;;;;;;24.79;53.99;102182.09;6160344;23;20037;-80
2023/07/10 08:31:00;;;;;;;7.00;1.98;;;;;;;24.59;54.91;102175.00;6134520;23;20504;-78
2023/07/10 08:33:28;;;;;;;9.45;2.40;;;;;;;24.91;54.77;102172.59;6160300;23;20014;-80
2023/07/10 08:35:56;;;;;;;4.82;2.25;;;;;;;25.16;54.80;102174.16;6160458;23;20018;-80
2023/07/10 08:38:24;;;;;;;7.00;2.65;;;;;;;25.44;52.61;102171.19;6160913;23;20470;-80
2023/07/10 08:40:54;;;;;;;4.75;2.13;;;;;;;25.66;53.05;102172.25;6161155;23;20463;-80
2023/07/10 08:43:33;;;;;;;7.72;2.30;;;;;;;25.84;51.45;102174.28;6160798;23;20085;-80
2023/07/10 08:46:14;;;;;;;5.03;2.15;;;;;;;25.99;51.81;102179.34;6134603;23;20037;-80
2023/07/10 08:48:59;;;;;;;;;;;;;;;26.12;53.49;102182.88;6135063;23;20089;-80
2023/07/10 08:51:41;;;;;;;6.93;2.30;;;;;;;26.13;51.26;102189.09;6160180;23;19920;-80
2023/07/10 08:54:12;;;;;;;9.73;2.30;;;;;;;26.21;51.21;102185.25;6134527;23;20053;-81
2023/07/10 08:56:51;;;;;;;7.80;2.35;;;;;;;26.05;50.93;102180.75;6160359;23;20025;-80
2023/07/10 08:59:40;;;;;;;5.13;2.53;;;;;;;26.05;52.35;102188.91;6133481;23;20041;-81
2023/07/10 09:02:24;;;;;;;4.32;1.85;;;;;;;25.95;50.24;102185.09;6134007;23;20065;-80
2023/07/10 09:04:51;;;;;;;3.97;1.92;;;;;;;25.57;50.83;102195.88;6160109;23;20018;-79
2023/07/10 09:07:19;;;;;;;6.47;2.17;;;;;;;25.80;52.42;102190.94;6160488;23;20096;-80
2023/07/10 09:09:57;;;;;;;5.32;2.63;;;;;;;25.86;50.89;102191.63;6134046;23;20048;-80
2023/07/10 09:12:33;;;;;;;5.63;2.08;;;;;;;26.17;50.09;102192.25;6160293;23;20020;-80
2023/07/10 09:15:06;;;;;;;6.15;1.90;;;;;;;26.30;49.18;102197.81;6134491;23;20100;-81
2023/07/10 09:17:47;;;;;;;9.68;2.13;;;;;;;26.67;49.40;102196.38;6133954;23;20021;-80
2023/07/10 09:20:14;;;;;;;7.10;2.08;;;;;;;27.12;46.58;102194.47;6134208;23;20014;-80
2023/07/10 09:22:51;;;;;;;8.00;2.20;;;;;;;27.20;46.82;102191.84;6160059;23;20040;-79
2023/07/10 09:25:21;;;;;;;3.92;1.80;;;;;;;27.25;48.09;102199.22;6133141;23;20045;-78
2023/07/10 09:27:48;;;;;;;6.85;2.15;;;;;;;27.46;46.83;102193.91;6159516;23;20504;-77
2023/07/10 09:30:34;;;;;;;6.72;2.20;;;;;;;27.46;46.79;102199.38;6159900;23;20460;-76
2023/07/10 09:33:05;;;;;;;6.57;2.70;;;;;;;27.36;46.84;102192.81;6159461;23;20049;-76
2023/07/10 09:35:35;;;;;;;8.05;2.33;;;;;;;27.46;46.15;102191.16;6159715;23;20050;-78
2023/07/10 09:38:02;;;;;;;5.40;2.03;;;;;;;27.47;45.97;102204.31;6133311;23;20073;-78
2023/07/10 09:40:36;;;;;;;4.68;1.90;;;;;;;27.56;45.70;102203.91;6158213;23;20410;-77
2023/07/10 09:43:05;;;;;;;4.95;2.08;;;;;;;27.05;46.69;102219.66;6159466;23;20341;-78
2023/07/10 09:45:35;;;;;;;6.80;2.28;;;;;;;26.62;47.58;102210.84;6132747;23;20109;-78
2023/07/10 09:48:09;;;;;;;8.82;2.10;;;;;;;26.76;46.70;102215.84;6159236;23;20101;-78
2023/07/10 09:50:36;;;;;;;7.53;2.13;;;;;;;26.96;46.09;102205.66;6133292;23;20014;-78
2023/07/10 09:53:02;;;;;;;6.18;1.80;;;;;;;27.10;45.30;102201.72;6159960;23;20014;-77
2023/07/10 09:55:29;;;;;;;4.30;2.03;;;;;;;27.46;44.01;102202.09;6132721;23;20022;-78
2023/07/10 09:58:01;;;;;;;6.70;1.98;;;;;;;27.40;44.70;102185.06;6159407;23;20097;-79
2023/07/10 10:00:29;;;;;;;5.35;2.17;;;;;;;27.35;45.52;102185.88;6133338;23;20419;-77
2023/07/10 10:03:09;;;;;;;8.05;2.10;;;;;;;27.52;45.15;102187.06;6158750;23;20014;-79
2023/07/10 10:05:41;;;;;;;3.38;1.80;;;;;;;27.11;44.75;102197.72;6133340;23;20029;-79
2023/07/10 10:08:19;;;;;;;7.00;1.95;;;;;;;27.44;44.00;102193.69;6159585;23;20094;-77
2023/07/10 10:11:00;;;;;;;2.47;1.48;;;;;;;27.81;43.54;102190.06;6159461;23;20018;-75
2023/07/10 10:13:29;;;;;;;4.80;1.85;;;;;;;27.55;44.70;102188.03;6159257;23;20475;-79
2023/07/10 10:16:03;;;;;;;6.35;1.70;;;;;;;27.83;43.70;102193.00;6132700;23;20014;-76
2023/07/10 10:18:41;;;;;;;5.55;2.03;;;;;;;28.01;43.24;102183.91;6159232;23;20464;-78
2023/07/10 10:21:11;;;;;;;4.60;1.70;;;;;;;27.94;42.45;102181.84;6134412;23;20089;-76
2023/07/10 10:23:40;;;;;;;4.55;1.73;;;;;;;27.58;41.41;102191.72;6159370;23;20018;-75
2023/07/10 10:26:31;;;;;;;3.60;1.73;;;;;;;27.76;42.48;102186.16;6175825;23;20096;-76
2023/07/10 10:29:19;;;;;;;5.00;1.70;;;;;;;28.04;40.84;102188.34;6189625;23;20089;-75
2023/07/10 10:31:54;;;;;;;4.38;1.60;;;;;;;27.93;40.82;102187.84;6188520;23;20018;-75
2023/07/10 10:34:41;;;;;;;4.50;1.52;;;;;;;27.65;40.94;102199.28;6188746;23;20443;-74
2023/07/10 10:37:22;;;;;;;4.90;1.98;;;;;;;27.61;41.55;102190.66;6162169;23;20081;-75
2023/07/10 10:40:02;;;;;;;3.60;1.80;;;;;;;27.46;41.50;102197.38;6187547;23;20021;-74
2023/07/10 10:42:39;;;;;;;4.32;1.88;;;;;;;26.65;42.66;102185.22;6188765;23;20036;-73
2023/07/10 10:45:11;;;;;;;7.05;1.70;;;;;;;26.54;43.61;102186.09;6188802;23;20017;-74
2023/07/10 10:47:44;;;;;;;5.55;1.80;;;;;;;26.75;43.19;102192.53;6162263;23;20024;-75
2023/07/10 10:50:44;;;;;;;9.48;1.90;;;;;;;26.73;43.87;102194.28;6189423;23;20080;-76
2023/07/10 10:53:23;;;;;;;6.15;2.30;;;;;;;26.69;42.82;102194.59;6170155;23;20091;-74
2023/07/10 10:56:03;;;;;;;7.60;1.88;;;;;;;26.50;43.17;102197.31;6138325;23;20096;-75
2023/07/10 10:58:46;;;;;;;7.53;1.92;;;;;;;26.47;44.48;102203.81;6189053;23;20498;-75
2023/07/10 11:01:31;;;;;;;7.85;2.10;;;;;;;26.92;43.75;102203.94;6162265;23;20025;-75
2023/07/10 11:04:12;;;;;;;5.78;1.75;;;;;;;27.00;44.48;102195.16;6188994;23;20014;-75
2023/07/10 11:06:45;;;;;;;;;;;;;;;27.01;44.68;102197.38;6188967;23;20435;-75
2023/07/10 11:09:16;;;;;;;4.47;1.80;;;;;;;27.49;44.38;102196.31;6189307;23;19927;-75
2023/07/10 11:11:43;;;;;;;6.18;2.00;;;;;;;27.66;44.10;102201.50;6188729;23;20022;-75
2023/07/10 11:14:12;;;;;;;4.70;1.98;;;;;;;28.04;43.03;102196.56;6189327;23;20069;-74
2023/07/10 11:16:40;;;;;;;4.05;1.70;;;;;;;28.36;42.11;102190.22;6189251;23;20018;-74
2023/07/10 11:19:24;;;;;;;6.50;1.98;;;;;;;28.35;41.86;102186.75;6188083;23;20048;-76
2023/07/10 11:21:52;;;;;;;8.88;1.98;;;;;;;27.98;42.60;102187.75;6190371;23;20026;-74
2023/07/10 11:24:24;;;;;;;6.75;1.70;;;;;;;27.72;42.02;102185.72;6190171;23;20017;-75
2023/07/10 11:26:52;;;;;;;6.85;2.20;;;;;;;27.73;42.24;102176.25;6158576;23;20445;-73
2023/07/10 11:29:30;;;;;;;2.88;1.60;;;;;;;27.56;43.09;102192.97;6159795;23;20097;-73
2023/07/10 11:32:01;;;;;;;13.85;2.15;;;;;;;27.51;44.16;102180.13;6160061;23;20146;-75
2023/07/10 11:34:30;;;;;;;5.30;2.08;;;;;;;27.56;43.13;102184.78;6159343;23;20089;-74
2023/07/10 11:36:58;;;;;;;5.53;2.70;;;;;;;27.27;44.08;102177.56;6160566;23;20042;-74
2023/07/10 11:39:36;;;;;;;8.82;1.98;;;;;;;27.34;42.74;102185.16;6158308;23;20093;-74